sensor_id;sensor_type;location;lat;lon;timestamp;pressure;altitude;pressure_sealevel;temperature;humidity
53550;BME280;73079;52.914;-0.982;2023-12-28T00:00:55;99289.66;;;8.17;96.15
53550;BME280;73079;52.914;-0.982;2023-12-28T00:03:21;99296.16;;;6.91;100.00
53550;BME280;73079;52.914;-0.982;2023-12-28T00:05:47;99305.34;;;6.89;100.00
53550;BME280;73079;52.914;-0.982;2023-12-28T00:08:13;99319.75;;;6.94;100.00
53550;BME280;73079;52.914;-0.982;2023-12-28T00:10:39;99309.25;;;6.86;100.00
53550;BME280;73079;52.914;-0.982;2023-12-28T00:13:06;99298.06;;;6.76;100.00
53550;BME280;73079;52.914;-0.982;2023-12-28T00:15:32;99292.34;;;6.79;100.00
53550;BME280;73079;52.914;-0.982;2023-12-28T00:18:00;99331.63;;;6.85;100.00
53550;BME280;73079;52.914;-0.982;2023-12-28T00:20:26;99309.25;;;6.86;100.00
53550;BME280;73079;52.914;-0.982;2023-12-28T00:22:53;99302.19;;;6.78;100.00
53550;BME280;73079;52.914;-0.982;2023-12-28T00:25:19;99332.53;;;6.71;100.00
53550;BME280;73079;52.914;-0.982;2023-12-28T00:27:45;99289.44;;;6.74;100.00
53550;BME280;73079;52.914;-0.982;2023-12-28T00:30:12;99286.97;;;6.72;100.00
53550;BME280;73079;52.914;-0.982;2023-12-28T00:32:39;99309.72;;;6.96;100.00
53550;BME280;73079;52.914;-0.982;2023-12-28T00:35:10;99319.94;;;6.93;100.00
53550;BME280;73079;52.914;-0.982;2023-12-28T00:37:36;99307.81;;;6.90;100.00
53550;BME280;73079;52.914;-0.982;2023-12-28T00:40:05;99301.75;;;7.03;100.00
53550;BME280;73079;52.914;-0.982;2023-12-28T00:42:31;99301.16;;;7.08;100.00
53550;BME280;73079;52.914;-0.982;2023-12-28T00:44:57;99276.81;;;7.24;100.00
53550;BME280;73079;52.914;-0.982;2023-12-28T00:47:23;99284.44;;;7.27;100.00
53550;BME280;73079;52.914;-0.982;2023-12-28T00:49:49;99310.00;;;7.43;100.00
53550;BME280;73079;52.914;-0.982;2023-12-28T00:52:16;99314.31;;;7.44;100.00
53550;BME280;73079;52.914;-0.982;2023-12-28T00:54:42;99311.94;;;7.63;98.03
53550;BME280;73079;52.914;-0.982;2023-12-28T00:57:08;99295.69;;;7.64;95.03
53550;BME280;73079;52.914;-0.982;2023-12-28T00:59:34;99290.72;;;7.54;94.58
53550;BME280;73079;52.914;-0.982;2023-12-28T01:02:00;99305.94;;;7.54;96.07
53550;BME280;73079;52.914;-0.982;2023-12-28T01:04:26;99305.28;;;7.45;98.95
53550;BME280;73079;52.914;-0.982;2023-12-28T01:06:52;99306.28;;;7.37;100.00
53550;BME280;73079;52.914;-0.982;2023-12-28T01:09:19;99309.38;;;7.41;100.00
53550;BME280;73079;52.914;-0.982;2023-12-28T01:11:46;99300.78;;;7.52;100.00
53550;BME280;73079;52.914;-0.982;2023-12-28T01:14:12;99298.34;;;7.57;100.00
53550;BME280;73079;52.914;-0.982;2023-12-28T01:16:38;99293.16;;;7.49;100.00
53550;BME280;73079;52.914;-0.982;2023-12-28T01:19:05;99278.59;;;7.52;100.00
53550;BME280;73079;52.914;-0.982;2023-12-28T01:21:31;99287.88;;;7.63;100.00
53550;BME280;73079;52.914;-0.982;2023-12-28T01:23:57;99284.97;;;7.57;100.00
53550;BME280;73079;52.914;-0.982;2023-12-28T01:26:24;99287.44;;;7.66;100.00
53550;BME280;73079;52.914;-0.982;2023-12-28T01:28:50;99301.03;;;7.71;100.00
53550;BME280;73079;52.914;-0.982;2023-12-28T01:31:16;99318.97;;;7.77;100.00
53550;BME280;73079;52.914;-0.982;2023-12-28T01:33:43;99320.44;;;7.86;100.00
53550;BME280;73079;52.914;-0.982;2023-12-28T01:36:18;99303.41;;;8.00;100.00
53550;BME280;73079;52.914;-0.982;2023-12-28T01:38:45;99310.63;;;8.00;100.00
53550;BME280;73079;52.914;-0.982;2023-12-28T01:41:11;99291.66;;;7.95;100.00
53550;BME280;73079;52.914;-0.982;2023-12-28T01:43:39;99318.44;;;8.08;100.00
53550;BME280;73079;52.914;-0.982;2023-12-28T01:46:06;99293.97;;;8.18;93.47
53550;BME280;73079;52.914;-0.982;2023-12-28T01:48:32;99295.84;;;8.17;91.56
53550;BME280;73079;52.914;-0.982;2023-12-28T01:50:58;99295.41;;;8.07;92.57
53550;BME280;73079;52.914;-0.982;2023-12-28T01:53:25;99286.97;;;8.10;90.44
53550;BME280;73079;52.914;-0.982;2023-12-28T01:55:51;99284.72;;;8.07;88.69
53550;BME280;73079;52.914;-0.982;2023-12-28T01:58:17;99283.44;;;7.96;91.29
53550;BME280;73079;52.914;-0.982;2023-12-28T02:00:45;99277.47;;;8.01;90.56
53550;BME280;73079;52.914;-0.982;2023-12-28T02:03:12;99275.25;;;8.11;88.67
53550;BME280;73079;52.914;-0.982;2023-12-28T02:05:38;99275.03;;;8.06;90.02
53550;BME280;73079;52.914;-0.982;2023-12-28T02:08:08;99265.16;;;8.00;88.94
53550;BME280;73079;52.914;-0.982;2023-12-28T02:10:34;99241.50;;;8.24;81.71
53550;BME280;73079;52.914;-0.982;2023-12-28T02:13:00;99252.84;;;8.52;78.21
53550;BME280;73079;52.914;-0.982;2023-12-28T02:15:26;99273.25;;;8.47;79.43
53550;BME280;73079;52.914;-0.982;2023-12-28T02:17:57;99290.91;;;8.41;78.21
53550;BME280;73079;52.914;-0.982;2023-12-28T02:20:25;99305.75;;;8.37;78.53
53550;BME280;73079;52.914;-0.982;2023-12-28T02:22:54;99323.50;;;8.51;78.09
53550;BME280;73079;52.914;-0.982;2023-12-28T02:25:21;99319.78;;;8.52;78.16
53550;BME280;73079;52.914;-0.982;2023-12-28T02:27:48;99310.66;;;8.27;80.47
53550;BME280;73079;52.914;-0.982;2023-12-28T02:30:16;99331.69;;;8.30;80.79
53550;BME280;73079;52.914;-0.982;2023-12-28T02:32:52;99324.25;;;8.12;83.73
53550;BME280;73079;52.914;-0.982;2023-12-28T02:35:23;99324.84;;;8.21;84.74
53550;BME280;73079;52.914;-0.982;2023-12-28T02:37:52;99326.69;;;8.13;85.66
53550;BME280;73079;52.914;-0.982;2023-12-28T02:40:20;99326.72;;;8.27;82.56
53550;BME280;73079;52.914;-0.982;2023-12-28T02:42:49;99320.56;;;8.40;78.53
53550;BME280;73079;52.914;-0.982;2023-12-28T02:45:15;99307.38;;;8.38;78.52
53550;BME280;73079;52.914;-0.982;2023-12-28T02:47:41;99312.72;;;8.38;77.70
53550;BME280;73079;52.914;-0.982;2023-12-28T02:50:07;99318.69;;;8.40;76.02
53550;BME280;73079;52.914;-0.982;2023-12-28T02:52:33;99335.00;;;8.38;76.25
53550;BME280;73079;52.914;-0.982;2023-12-28T02:54:59;99330.41;;;8.26;76.93
53550;BME280;73079;52.914;-0.982;2023-12-28T02:57:26;99346.69;;;8.17;78.49
53550;BME280;73079;52.914;-0.982;2023-12-28T02:59:52;99343.72;;;7.99;80.61
53550;BME280;73079;52.914;-0.982;2023-12-28T03:02:18;99344.72;;;7.85;82.86
53550;BME280;73079;52.914;-0.982;2023-12-28T03:04:47;99366.56;;;7.95;85.89
53550;BME280;73079;52.914;-0.982;2023-12-28T03:07:16;99354.47;;;8.12;85.71
53550;BME280;73079;52.914;-0.982;2023-12-28T03:09:44;99375.69;;;8.21;85.77
53550;BME280;73079;52.914;-0.982;2023-12-28T03:12:13;99375.50;;;8.29;84.53
53550;BME280;73079;52.914;-0.982;2023-12-28T03:14:46;99384.84;;;8.46;81.82
53550;BME280;73079;52.914;-0.982;2023-12-28T03:17:16;99388.97;;;8.55;80.09
53550;BME280;73079;52.914;-0.982;2023-12-28T03:19:45;99376.63;;;8.68;78.26
53550;BME280;73079;52.914;-0.982;2023-12-28T03:22:11;99379.53;;;8.86;76.21
53550;BME280;73079;52.914;-0.982;2023-12-28T03:24:37;99403.84;;;8.98;74.31
53550;BME280;73079;52.914;-0.982;2023-12-28T03:27:05;99407.97;;;9.01;73.28
53550;BME280;73079;52.914;-0.982;2023-12-28T03:29:33;99422.81;;;9.10;73.50
53550;BME280;73079;52.914;-0.982;2023-12-28T03:32:03;99450.00;;;9.00;74.13
53550;BME280;73079;52.914;-0.982;2023-12-28T03:34:29;99446.69;;;8.78;76.69
53550;BME280;73079;52.914;-0.982;2023-12-28T03:36:59;99418.03;;;8.72;75.81
53550;BME280;73079;52.914;-0.982;2023-12-28T03:39:28;99445.03;;;8.64;76.82
53550;BME280;73079;52.914;-0.982;2023-12-28T03:41:55;99458.13;;;8.45;78.04
53550;BME280;73079;52.914;-0.982;2023-12-28T03:44:22;99450.56;;;8.55;76.12
53550;BME280;73079;52.914;-0.982;2023-12-28T03:46:48;99450.38;;;8.64;75.54
53550;BME280;73079;52.914;-0.982;2023-12-28T03:49:16;99457.56;;;8.63;74.79
53550;BME280;73079;52.914;-0.982;2023-12-28T03:51:42;99446.28;;;8.74;73.69
53550;BME280;73079;52.914;-0.982;2023-12-28T03:54:08;99455.31;;;8.67;74.18
53550;BME280;73079;52.914;-0.982;2023-12-28T03:56:35;99453.25;;;8.75;73.21
53550;BME280;73079;52.914;-0.982;2023-12-28T03:59:01;99454.50;;;8.86;71.62
53550;BME280;73079;52.914;-0.982;2023-12-28T04:01:27;99470.59;;;8.86;71.04
53550;BME280;73079;52.914;-0.982;2023-12-28T04:03:54;99479.22;;;8.75;72.48
53550;BME280;73079;52.914;-0.982;2023-12-28T04:06:21;99477.56;;;8.74;70.97
53550;BME280;73079;52.914;-0.982;2023-12-28T04:08:47;99483.94;;;8.66;71.65
53550;BME280;73079;52.914;-0.982;2023-12-28T04:11:13;99487.44;;;8.67;70.57
53550;BME280;73079;52.914;-0.982;2023-12-28T04:13:39;99486.78;;;8.51;72.25
53550;BME280;73079;52.914;-0.982;2023-12-28T04:16:06;99480.16;;;8.47;71.39
53550;BME280;73079;52.914;-0.982;2023-12-28T04:18:32;99498.09;;;8.47;71.73
53550;BME280;73079;52.914;-0.982;2023-12-28T04:20:58;99515.75;;;8.41;71.34
53550;BME280;73079;52.914;-0.982;2023-12-28T04:23:26;99520.53;;;8.46;70.65
53550;BME280;73079;52.914;-0.982;2023-12-28T04:25:52;99516.81;;;8.47;70.42
53550;BME280;73079;52.914;-0.982;2023-12-28T04:28:18;99508.59;;;8.48;70.04
53550;BME280;73079;52.914;-0.982;2023-12-28T04:30:44;99510.38;;;8.41;71.64
53550;BME280;73079;52.914;-0.982;2023-12-28T04:33:10;99510.25;;;8.49;70.95
53550;BME280;73079;52.914;-0.982;2023-12-28T04:35:36;99527.56;;;8.53;70.37
53550;BME280;73079;52.914;-0.982;2023-12-28T04:38:02;99525.50;;;8.55;70.94
53550;BME280;73079;52.914;-0.982;2023-12-28T04:40:29;99535.59;;;8.53;71.46
53550;BME280;73079;52.914;-0.982;2023-12-28T04:42:55;99532.94;;;8.67;70.79
53550;BME280;73079;52.914;-0.982;2023-12-28T04:45:21;99529.47;;;8.66;70.40
53550;BME280;73079;52.914;-0.982;2023-12-28T04:47:48;99526.97;;;8.65;70.46
53550;BME280;73079;52.914;-0.982;2023-12-28T04:50:14;99530.50;;;8.72;69.97
53550;BME280;73079;52.914;-0.982;2023-12-28T04:52:40;99531.94;;;8.68;70.33
53550;BME280;73079;52.914;-0.982;2023-12-28T04:55:06;99536.91;;;8.71;69.85
53550;BME280;73079;52.914;-0.982;2023-12-28T04:57:34;99552.13;;;8.70;70.32
53550;BME280;73079;52.914;-0.982;2023-12-28T05:00:00;99559.56;;;8.75;70.39
53550;BME280;73079;52.914;-0.982;2023-12-28T05:02:26;99570.66;;;8.65;71.16
53550;BME280;73079;52.914;-0.982;2023-12-28T05:04:52;99578.19;;;8.48;72.44
53550;BME280;73079;52.914;-0.982;2023-12-28T05:07:19;99590.69;;;8.41;73.34
53550;BME280;73079;52.914;-0.982;2023-12-28T05:09:45;99591.50;;;8.35;74.31
53550;BME280;73079;52.914;-0.982;2023-12-28T05:12:11;99594.59;;;8.38;74.40
53550;BME280;73079;52.914;-0.982;2023-12-28T05:14:39;99604.88;;;8.35;74.72
53550;BME280;73079;52.914;-0.982;2023-12-28T05:17:05;99601.03;;;8.44;74.42
53550;BME280;73079;52.914;-0.982;2023-12-28T05:19:34;99599.25;;;8.58;73.88
53550;BME280;73079;52.914;-0.982;2023-12-28T05:22:00;99595.13;;;8.55;73.72
53550;BME280;73079;52.914;-0.982;2023-12-28T05:24:29;99585.84;;;8.51;74.59
53550;BME280;73079;52.914;-0.982;2023-12-28T05:26:55;99583.31;;;8.43;75.22
53550;BME280;73079;52.914;-0.982;2023-12-28T05:29:21;99588.22;;;8.40;75.00
53550;BME280;73079;52.914;-0.982;2023-12-28T05:31:49;99585.25;;;8.28;75.64
53550;BME280;73079;52.914;-0.982;2023-12-28T05:34:15;99589.34;;;8.24;75.94
53550;BME280;73079;52.914;-0.982;2023-12-28T05:36:41;99585.22;;;8.21;76.74
53550;BME280;73079;52.914;-0.982;2023-12-28T05:39:07;99579.69;;;8.23;77.06
53550;BME280;73079;52.914;-0.982;2023-12-28T05:41:35;99590.22;;;8.31;77.48
53550;BME280;73079;52.914;-0.982;2023-12-28T05:44:01;99596.38;;;8.25;77.66
53550;BME280;73079;52.914;-0.982;2023-12-28T05:46:26;99601.72;;;8.25;78.55
53550;BME280;73079;52.914;-0.982;2023-12-28T05:48:54;99605.41;;;8.24;78.85
53550;BME280;73079;52.914;-0.982;2023-12-28T05:51:20;99602.81;;;8.37;77.92
53550;BME280;73079;52.914;-0.982;2023-12-28T05:53:46;99595.56;;;8.31;77.94
53550;BME280;73079;52.914;-0.982;2023-12-28T05:56:13;99597.47;;;8.37;77.63
53550;BME280;73079;52.914;-0.982;2023-12-28T05:58:38;99610.44;;;8.40;77.64
53550;BME280;73079;52.914;-0.982;2023-12-28T06:01:04;99611.63;;;8.31;78.26
53550;BME280;73079;52.914;-0.982;2023-12-28T06:03:30;99619.88;;;8.36;78.31
53550;BME280;73079;52.914;-0.982;2023-12-28T06:05:58;99622.19;;;8.39;77.25
53550;BME280;73079;52.914;-0.982;2023-12-28T06:08:29;99629.78;;;8.35;77.40
53550;BME280;73079;52.914;-0.982;2023-12-28T06:10:58;99627.44;;;8.54;76.05
53550;BME280;73079;52.914;-0.982;2023-12-28T06:13:24;99622.09;;;8.54;75.47
53550;BME280;73079;52.914;-0.982;2023-12-28T06:15:49;99629.16;;;8.62;73.72
53550;BME280;73079;52.914;-0.982;2023-12-28T06:18:15;99608.97;;;8.66;74.08
53550;BME280;73079;52.914;-0.982;2023-12-28T06:20:41;99630.41;;;8.66;74.01
53550;BME280;73079;52.914;-0.982;2023-12-28T06:23:08;99634.09;;;8.65;74.40
53550;BME280;73079;52.914;-0.982;2023-12-28T06:25:35;99638.19;;;8.61;73.79
53550;BME280;73079;52.914;-0.982;2023-12-28T06:28:01;99627.28;;;8.62;73.82
53550;BME280;73079;52.914;-0.982;2023-12-28T06:30:26;99625.69;;;8.74;73.02
53550;BME280;73079;52.914;-0.982;2023-12-28T06:32:52;99637.00;;;8.70;74.32
53550;BME280;73079;52.914;-0.982;2023-12-28T06:35:18;99642.38;;;8.77;73.72
53550;BME280;73079;52.914;-0.982;2023-12-28T06:37:44;99653.88;;;8.70;74.79
53550;BME280;73079;52.914;-0.982;2023-12-28T06:40:12;99640.91;;;8.74;74.55
53550;BME280;73079;52.914;-0.982;2023-12-28T06:42:38;99652.00;;;8.64;74.72
53550;BME280;73079;52.914;-0.982;2023-12-28T06:45:05;99651.06;;;8.79;73.71
53550;BME280;73079;52.914;-0.982;2023-12-28T06:47:31;99657.22;;;8.79;74.08
53550;BME280;73079;52.914;-0.982;2023-12-28T06:49:57;99664.63;;;8.77;74.56
53550;BME280;73079;52.914;-0.982;2023-12-28T06:52:23;99662.97;;;8.69;74.99
53550;BME280;73079;52.914;-0.982;2023-12-28T06:54:50;99669.13;;;8.70;75.08
53550;BME280;73079;52.914;-0.982;2023-12-28T06:57:18;99667.50;;;8.69;74.57
53550;BME280;73079;52.914;-0.982;2023-12-28T06:59:44;99668.97;;;8.78;73.77
53550;BME280;73079;52.914;-0.982;2023-12-28T07:02:10;99667.06;;;8.72;74.35
53550;BME280;73079;52.914;-0.982;2023-12-28T07:04:36;99671.66;;;8.78;73.31
53550;BME280;73079;52.914;-0.982;2023-12-28T07:07:02;99675.09;;;8.72;74.08
53550;BME280;73079;52.914;-0.982;2023-12-28T07:09:28;99671.13;;;8.61;74.58
53550;BME280;73079;52.914;-0.982;2023-12-28T07:11:54;99678.50;;;8.52;75.53
53550;BME280;73079;52.914;-0.982;2023-12-28T07:14:22;99682.50;;;8.42;76.29
53550;BME280;73079;52.914;-0.982;2023-12-28T07:16:47;99687.63;;;8.36;77.83
53550;BME280;73079;52.914;-0.982;2023-12-28T07:19:13;99682.44;;;8.28;80.78
53550;BME280;73079;52.914;-0.982;2023-12-28T07:21:39;99672.59;;;8.35;82.99
53550;BME280;73079;52.914;-0.982;2023-12-28T07:24:05;99675.59;;;8.26;88.36
53550;BME280;73079;52.914;-0.982;2023-12-28T07:26:31;99673.81;;;8.33;91.07
53550;BME280;73079;52.914;-0.982;2023-12-28T07:28:57;99678.53;;;8.31;90.18
53550;BME280;73079;52.914;-0.982;2023-12-28T07:31:25;99684.84;;;8.23;91.69
53550;BME280;73079;52.914;-0.982;2023-12-28T07:33:52;99684.03;;;8.23;92.00
53550;BME280;73079;52.914;-0.982;2023-12-28T07:36:18;99689.22;;;8.31;89.93
53550;BME280;73079;52.914;-0.982;2023-12-28T07:38:44;99689.47;;;8.36;88.01
53550;BME280;73079;52.914;-0.982;2023-12-28T07:41:10;99699.75;;;8.32;88.29
53550;BME280;73079;52.914;-0.982;2023-12-28T07:43:36;99693.97;;;8.29;88.82
53550;BME280;73079;52.914;-0.982;2023-12-28T07:46:03;99697.69;;;8.34;87.69
53550;BME280;73079;52.914;-0.982;2023-12-28T07:48:30;99697.81;;;8.19;89.18
53550;BME280;73079;52.914;-0.982;2023-12-28T07:50:56;99694.63;;;8.09;91.13
53550;BME280;73079;52.914;-0.982;2023-12-28T07:53:22;99706.94;;;8.04;91.80
53550;BME280;73079;52.914;-0.982;2023-12-28T07:55:48;99718.13;;;8.14;91.00
53550;BME280;73079;52.914;-0.982;2023-12-28T07:58:14;99719.34;;;8.11;88.87
53550;BME280;73079;52.914;-0.982;2023-12-28T08:00:40;99716.16;;;8.23;86.97
53550;BME280;73079;52.914;-0.982;2023-12-28T08:03:06;99722.31;;;8.23;87.55
53550;BME280;73079;52.914;-0.982;2023-12-28T08:05:33;99709.19;;;8.28;85.92
53550;BME280;73079;52.914;-0.982;2023-12-28T08:07:59;99714.44;;;8.15;87.64
53550;BME280;73079;52.914;-0.982;2023-12-28T08:10:25;99720.63;;;8.15;89.04
53550;BME280;73079;52.914;-0.982;2023-12-28T08:12:51;99727.72;;;8.08;90.80
53550;BME280;73079;52.914;-0.982;2023-12-28T08:15:18;99730.03;;;8.11;89.12
53550;BME280;73079;52.914;-0.982;2023-12-28T08:17:44;99728.59;;;8.09;88.48
53550;BME280;73079;52.914;-0.982;2023-12-28T08:20:10;99734.06;;;8.00;88.28
53550;BME280;73079;52.914;-0.982;2023-12-28T08:22:37;99735.72;;;8.02;86.77
53550;BME280;73079;52.914;-0.982;2023-12-28T08:25:03;99750.19;;;8.07;84.99
53550;BME280;73079;52.914;-0.982;2023-12-28T08:27:30;99750.28;;;8.21;82.15
53550;BME280;73079;52.914;-0.982;2023-12-28T08:29:56;99747.47;;;8.29;81.67
53550;BME280;73079;52.914;-0.982;2023-12-28T08:32:22;99747.47;;;8.29;81.21
53550;BME280;73079;52.914;-0.982;2023-12-28T08:34:47;99746.72;;;8.35;81.09
53550;BME280;73079;52.914;-0.982;2023-12-28T08:37:15;99751.16;;;8.28;81.50
53550;BME280;73079;52.914;-0.982;2023-12-28T08:39:42;99742.63;;;8.39;80.67
53550;BME280;73079;52.914;-0.982;2023-12-28T08:42:08;99749.16;;;8.30;81.26
53550;BME280;73079;52.914;-0.982;2023-12-28T08:44:34;99751.16;;;8.28;81.31
53550;BME280;73079;52.914;-0.982;2023-12-28T08:47:02;99740.47;;;8.28;81.85
53550;BME280;73079;52.914;-0.982;2023-12-28T08:49:29;99746.06;;;8.33;81.32
53550;BME280;73079;52.914;-0.982;2023-12-28T08:51:55;99736.09;;;8.20;81.96
53550;BME280;73079;52.914;-0.982;2023-12-28T08:54:20;99746.22;;;8.25;81.92
53550;BME280;73079;52.914;-0.982;2023-12-28T08:56:48;99752.72;;;8.15;83.73
53550;BME280;73079;52.914;-0.982;2023-12-28T08:59:14;99765.44;;;8.13;84.41
53550;BME280;73079;52.914;-0.982;2023-12-28T09:01:40;99757.03;;;8.16;85.03
53550;BME280;73079;52.914;-0.982;2023-12-28T09:04:05;99772.97;;;8.25;84.47
53550;BME280;73079;52.914;-0.982;2023-12-28T09:06:32;99773.34;;;8.22;83.98
53550;BME280;73079;52.914;-0.982;2023-12-28T09:08:57;99782.53;;;8.34;83.21
53550;BME280;73079;52.914;-0.982;2023-12-28T09:11:27;99788.19;;;8.24;83.06
53550;BME280;73079;52.914;-0.982;2023-12-28T09:13:56;99776.81;;;8.15;83.54
53550;BME280;73079;52.914;-0.982;2023-12-28T09:16:21;99778.97;;;8.05;82.92
53550;BME280;73079;52.914;-0.982;2023-12-28T09:18:47;99778.81;;;7.92;84.41
53550;BME280;73079;52.914;-0.982;2023-12-28T09:21:13;99774.69;;;7.89;84.83
53550;BME280;73079;52.914;-0.982;2023-12-28T09:23:39;99769.34;;;7.89;84.22
53550;BME280;73079;52.914;-0.982;2023-12-28T09:26:09;99784.94;;;7.86;83.39
53550;BME280;73079;52.914;-0.982;2023-12-28T09:28:35;99783.16;;;7.93;83.23
53550;BME280;73079;52.914;-0.982;2023-12-28T09:31:03;99767.13;;;7.93;82.77
53550;BME280;73079;52.914;-0.982;2023-12-28T09:33:29;99774.56;;;7.97;82.02
53550;BME280;73079;52.914;-0.982;2023-12-28T09:35:55;99784.69;;;7.80;83.82
53550;BME280;73079;52.914;-0.982;2023-12-28T09:38:21;99785.56;;;7.88;83.30
53550;BME280;73079;52.914;-0.982;2023-12-28T09:40:52;99783.44;;;7.98;82.19
53550;BME280;73079;52.914;-0.982;2023-12-28T09:43:22;99783.53;;;7.90;82.33
53550;BME280;73079;52.914;-0.982;2023-12-28T09:45:49;99786.84;;;7.92;82.35
53550;BME280;73079;52.914;-0.982;2023-12-28T09:48:16;99791.03;;;8.01;81.61
53550;BME280;73079;52.914;-0.982;2023-12-28T09:50:43;99790.50;;;8.06;80.91
53550;BME280;73079;52.914;-0.982;2023-12-28T09:53:09;99786.59;;;8.08;80.81
53550;BME280;73079;52.914;-0.982;2023-12-28T09:55:35;99791.56;;;8.11;80.37
53550;BME280;73079;52.914;-0.982;2023-12-28T09:58:02;99796.03;;;8.04;80.78
53550;BME280;73079;52.914;-0.982;2023-12-28T10:00:31;99781.66;;;8.05;80.56
53550;BME280;73079;52.914;-0.982;2023-12-28T10:02:57;99788.53;;;8.14;79.83
53550;BME280;73079;52.914;-0.982;2023-12-28T10:05:24;99780.75;;;8.19;78.95
53550;BME280;73079;52.914;-0.982;2023-12-28T10:07:50;99785.75;;;8.29;78.70
53550;BME280;73079;52.914;-0.982;2023-12-28T10:10:16;99780.47;;;8.36;78.35
53550;BME280;73079;52.914;-0.982;2023-12-28T10:12:43;99786.75;;;8.43;78.19
53550;BME280;73079;52.914;-0.982;2023-12-28T10:15:09;99784.81;;;8.59;78.14
53550;BME280;73079;52.914;-0.982;2023-12-28T10:17:35;99792.03;;;8.58;78.10
53550;BME280;73079;52.914;-0.982;2023-12-28T10:20:01;99794.31;;;8.61;77.83
53550;BME280;73079;52.914;-0.982;2023-12-28T10:22:34;99790.75;;;8.54;78.71
53550;BME280;73079;52.914;-0.982;2023-12-28T10:25:01;99791.81;;;8.60;79.46
53550;BME280;73079;52.914;-0.982;2023-12-28T10:27:28;99799.59;;;8.76;78.08
53550;BME280;73079;52.914;-0.982;2023-12-28T10:29:54;99786.03;;;8.84;77.49
53550;BME280;73079;52.914;-0.982;2023-12-28T10:32:20;99792.44;;;8.83;78.24
53550;BME280;73079;52.914;-0.982;2023-12-28T10:34:48;99779.03;;;8.83;78.01
53550;BME280;73079;52.914;-0.982;2023-12-28T10:37:16;99770.63;;;8.93;77.84
53550;BME280;73079;52.914;-0.982;2023-12-28T10:39:46;99777.72;;;9.01;77.72
53550;BME280;73079;52.914;-0.982;2023-12-28T10:42:13;99778.78;;;8.78;78.70
53550;BME280;73079;52.914;-0.982;2023-12-28T10:44:43;99773.50;;;8.91;78.37
53550;BME280;73079;52.914;-0.982;2023-12-28T10:47:15;99768.50;;;8.82;79.24
53550;BME280;73079;52.914;-0.982;2023-12-28T10:49:44;99769.09;;;8.77;80.37
53550;BME280;73079;52.914;-0.982;2023-12-28T10:52:14;99764.78;;;8.76;79.65
53550;BME280;73079;52.914;-0.982;2023-12-28T10:54:50;99748.03;;;8.67;81.30
53550;BME280;73079;52.914;-0.982;2023-12-28T10:57:23;99746.53;;;8.65;82.36
53550;BME280;73079;52.914;-0.982;2023-12-28T11:00:02;99751.22;;;8.56;83.26
53550;BME280;73079;52.914;-0.982;2023-12-28T11:02:38;99738.50;;;8.58;84.29
53550;BME280;73079;52.914;-0.982;2023-12-28T11:05:05;99740.69;;;8.83;83.17
53550;BME280;73079;52.914;-0.982;2023-12-28T11:07:33;99735.31;;;8.83;83.25
53550;BME280;73079;52.914;-0.982;2023-12-28T11:10:03;99731.50;;;8.99;82.67
53550;BME280;73079;52.914;-0.982;2023-12-28T11:12:31;99721.28;;;9.16;81.45
53550;BME280;73079;52.914;-0.982;2023-12-28T11:14:57;99712.44;;;9.15;81.77
53550;BME280;73079;52.914;-0.982;2023-12-28T11:17:23;99707.06;;;9.15;81.92
53550;BME280;73079;52.914;-0.982;2023-12-28T11:19:53;99703.59;;;9.21;82.41
53550;BME280;73079;52.914;-0.982;2023-12-28T11:22:19;99697.84;;;9.24;81.99
53550;BME280;73079;52.914;-0.982;2023-12-28T11:24:46;99694.53;;;9.22;82.98
53550;BME280;73079;52.914;-0.982;2023-12-28T11:27:13;99678.06;;;9.32;82.51
53550;BME280;73079;52.914;-0.982;2023-12-28T11:29:41;99681.38;;;9.41;82.28
53550;BME280;73079;52.914;-0.982;2023-12-28T11:32:09;99675.84;;;9.49;81.98
53550;BME280;73079;52.914;-0.982;2023-12-28T11:34:35;99661.19;;;9.45;81.59
53550;BME280;73079;52.914;-0.982;2023-12-28T11:37:04;99657.25;;;9.41;82.19
53550;BME280;73079;52.914;-0.982;2023-12-28T11:39:33;99652.50;;;9.43;82.35
53550;BME280;73079;52.914;-0.982;2023-12-28T11:41:59;99643.47;;;9.44;82.52
53550;BME280;73079;52.914;-0.982;2023-12-28T11:44:27;99636.41;;;9.36;82.56
53550;BME280;73079;52.914;-0.982;2023-12-28T11:46:53;99612.06;;;9.38;82.95
53550;BME280;73079;52.914;-0.982;2023-12-28T11:49:25;99627.81;;;9.54;81.37
53550;BME280;73079;52.914;-0.982;2023-12-28T11:51:55;99617.09;;;9.54;81.05
53550;BME280;73079;52.914;-0.982;2023-12-28T11:54:21;99605.53;;;9.60;80.04
53550;BME280;73079;52.914;-0.982;2023-12-28T11:56:47;99602.84;;;9.47;81.06
53550;BME280;73079;52.914;-0.982;2023-12-28T11:59:13;99601.00;;;9.54;80.76
53550;BME280;73079;52.914;-0.982;2023-12-28T12:01:40;99587.59;;;9.54;79.66
53550;BME280;73079;52.914;-0.982;2023-12-28T12:04:06;99587.16;;;9.64;79.37
53550;BME280;73079;52.914;-0.982;2023-12-28T12:06:33;99587.75;;;9.59;79.22
53550;BME280;73079;52.914;-0.982;2023-12-28T12:08:58;99566.13;;;9.67;78.74
53550;BME280;73079;52.914;-0.982;2023-12-28T12:11:24;99567.97;;;9.67;79.26
53550;BME280;73079;52.914;-0.982;2023-12-28T12:13:51;99568.19;;;9.72;78.69
53550;BME280;73079;52.914;-0.982;2023-12-28T12:16:17;99555.81;;;9.71;79.41
53550;BME280;73079;52.914;-0.982;2023-12-28T12:18:44;99535.78;;;9.80;79.19
53550;BME280;73079;52.914;-0.982;2023-12-28T12:21:10;99547.56;;;9.73;80.47
53550;BME280;73079;52.914;-0.982;2023-12-28T12:23:36;99552.09;;;9.65;81.31
53550;BME280;73079;52.914;-0.982;2023-12-28T12:26:05;99537.03;;;9.71;81.80
53550;BME280;73079;52.914;-0.982;2023-12-28T12:28:31;99532.09;;;9.61;82.90
53550;BME280;73079;52.914;-0.982;2023-12-28T12:30:57;99543.63;;;9.75;81.62
53550;BME280;73079;52.914;-0.982;2023-12-28T12:33:27;99538.88;;;9.84;81.78
53550;BME280;73079;52.914;-0.982;2023-12-28T12:35:55;99527.13;;;9.71;82.94
53550;BME280;73079;52.914;-0.982;2023-12-28T12:38:21;99556.00;;;9.63;84.35
53550;BME280;73079;52.914;-0.982;2023-12-28T12:40:50;99550.44;;;9.51;84.25
53550;BME280;73079;52.914;-0.982;2023-12-28T12:43:16;99532.28;;;9.33;90.44
53550;BME280;73079;52.914;-0.982;2023-12-28T12:45:42;99551.03;;;9.20;100.00
53550;BME280;73079;52.914;-0.982;2023-12-28T12:48:08;99539.06;;;9.09;100.00
53550;BME280;73079;52.914;-0.982;2023-12-28T12:50:33;99548.50;;;8.98;100.00
53550;BME280;73079;52.914;-0.982;2023-12-28T12:53:04;99544.78;;;8.92;100.00
53550;BME280;73079;52.914;-0.982;2023-12-28T12:55:30;99539.00;;;8.89;100.00
53550;BME280;73079;52.914;-0.982;2023-12-28T12:57:57;99537.78;;;8.91;100.00